Terminal Aerodrome Forecast
Issued by NWS Sterling, VA

Home | Current Version | Previous Version | Text Only | Print | Product List | Glossary On
Versions: 1 2 3 4 5 6 7 8 9 10 11 12 13 14 15 16 17 18 19 20 21 22 23 24
000
FTUS41 KLWX 021022 AAB
TAFIAD
TAF AMD
KIAD 021022Z 0210/0312 25006KT 1/4SM FG OVC002
     FM021300 29004KT 1SM BR BKN006 OVC050
     FM021400 29004KT P6SM SCT006 BKN045
     FM021600 31012G25KT P6SM SCT045 SCT250
     FM030000 31008KT P6SM SCT200
     FM030600 VRB04KT P6SM BKN200=

USA.gov is the U.S. government's official web portal to all federal, state and local government web resources and services.